sensor_id;sensor_type;location;lat;lon;timestamp;temperature;humidity
71672;DHT22;62112;45.638;11.714;2023-01-28T00:02:24;19.10;65.60
71672;DHT22;62112;45.638;11.714;2023-01-28T00:04:50;19.00;65.60
71672;DHT22;62112;45.638;11.714;2023-01-28T00:07:16;19.10;65.90
71672;DHT22;62112;45.638;11.714;2023-01-28T00:09:43;19.10;65.50
71672;DHT22;62112;45.638;11.714;2023-01-28T00:12:09;19.10;65.80
71672;DHT22;62112;45.638;11.714;2023-01-28T00:14:35;19.10;65.70
71672;DHT22;62112;45.638;11.714;2023-01-28T00:17:03;19.10;65.60
71672;DHT22;62112;45.638;11.714;2023-01-28T00:19:29;19.10;65.30
71672;DHT22;62112;45.638;11.714;2023-01-28T00:21:54;19.10;65.70
71672;DHT22;62112;45.638;11.714;2023-01-28T00:24:20;19.10;65.70
71672;DHT22;62112;45.638;11.714;2023-01-28T00:26:46;19.10;65.50
71672;DHT22;62112;45.638;11.714;2023-01-28T00:29:12;19.00;65.60
71672;DHT22;62112;45.638;11.714;2023-01-28T00:31:38;19.10;65.50
71672;DHT22;62112;45.638;11.714;2023-01-28T00:34:05;19.10;65.50
71672;DHT22;62112;45.638;11.714;2023-01-28T00:36:31;19.00;66.00
71672;DHT22;62112;45.638;11.714;2023-01-28T00:38:58;19.10;65.70
71672;DHT22;62112;45.638;11.714;2023-01-28T00:41:26;19.10;65.50
71672;DHT22;62112;45.638;11.714;2023-01-28T00:43:53;19.10;65.50
71672;DHT22;62112;45.638;11.714;2023-01-28T00:46:20;19.00;65.50
71672;DHT22;62112;45.638;11.714;2023-01-28T00:48:46;19.00;65.70
71672;DHT22;62112;45.638;11.714;2023-01-28T00:51:14;19.10;65.80
71672;DHT22;62112;45.638;11.714;2023-01-28T00:53:42;19.10;65.60
71672;DHT22;62112;45.638;11.714;2023-01-28T00:56:10;19.10;65.60
71672;DHT22;62112;45.638;11.714;2023-01-28T00:58:37;19.00;65.90
71672;DHT22;62112;45.638;11.714;2023-01-28T01:03:33;19.10;65.60
71672;DHT22;62112;45.638;11.714;2023-01-28T01:05:59;19.10;65.70
71672;DHT22;62112;45.638;11.714;2023-01-28T01:08:25;19.00;65.60
71672;DHT22;62112;45.638;11.714;2023-01-28T01:11:02;19.00;65.70
71672;DHT22;62112;45.638;11.714;2023-01-28T01:13:30;19.00;65.80
71672;DHT22;62112;45.638;11.714;2023-01-28T01:16:14;19.00;65.50
71672;DHT22;62112;45.638;11.714;2023-01-28T01:18:42;19.00;65.30
71672;DHT22;62112;45.638;11.714;2023-01-28T01:21:10;18.90;65.40
71672;DHT22;62112;45.638;11.714;2023-01-28T01:23:37;19.10;65.80
71672;DHT22;62112;45.638;11.714;2023-01-28T01:26:04;19.00;65.80
71672;DHT22;62112;45.638;11.714;2023-01-28T01:28:30;19.00;65.40
71672;DHT22;62112;45.638;11.714;2023-01-28T01:31:06;19.00;65.50
71672;DHT22;62112;45.638;11.714;2023-01-28T01:33:32;19.00;65.60
71672;DHT22;62112;45.638;11.714;2023-01-28T01:35:59;18.90;65.60
71672;DHT22;62112;45.638;11.714;2023-01-28T01:38:25;19.00;65.70
71672;DHT22;62112;45.638;11.714;2023-01-28T01:40:54;19.00;65.60
71672;DHT22;62112;45.638;11.714;2023-01-28T01:43:21;19.00;65.70
71672;DHT22;62112;45.638;11.714;2023-01-28T01:45:59;19.00;65.30
71672;DHT22;62112;45.638;11.714;2023-01-28T01:48:33;19.00;65.70
71672;DHT22;62112;45.638;11.714;2023-01-28T01:51:05;19.00;65.60
71672;DHT22;62112;45.638;11.714;2023-01-28T01:53:35;19.00;65.40
71672;DHT22;62112;45.638;11.714;2023-01-28T01:56:04;18.90;65.60
71672;DHT22;62112;45.638;11.714;2023-01-28T01:58:35;18.90;65.60
71672;DHT22;62112;45.638;11.714;2023-01-28T02:01:02;18.90;65.20
71672;DHT22;62112;45.638;11.714;2023-01-28T02:03:59;19.00;65.10
71672;DHT22;62112;45.638;11.714;2023-01-28T02:06:22;18.90;65.50
71672;DHT22;62112;45.638;11.714;2023-01-28T02:08:48;18.90;65.50
71672;DHT22;62112;45.638;11.714;2023-01-28T02:11:16;18.90;65.40
71672;DHT22;62112;45.638;11.714;2023-01-28T02:13:49;18.90;65.60
71672;DHT22;62112;45.638;11.714;2023-01-28T02:16:17;19.00;65.60
71672;DHT22;62112;45.638;11.714;2023-01-28T02:18:43;18.90;65.50
71672;DHT22;62112;45.638;11.714;2023-01-28T02:21:17;19.00;65.30
71672;DHT22;62112;45.638;11.714;2023-01-28T02:26:38;19.00;65.50
71672;DHT22;62112;45.638;11.714;2023-01-28T02:34:33;18.90;65.80
71672;DHT22;62112;45.638;11.714;2023-01-28T02:37:08;18.90;65.30
71672;DHT22;62112;45.638;11.714;2023-01-28T02:39:45;18.90;65.50
71672;DHT22;62112;45.638;11.714;2023-01-28T02:42:17;18.90;65.30
71672;DHT22;62112;45.638;11.714;2023-01-28T02:44:44;18.80;65.30
71672;DHT22;62112;45.638;11.714;2023-01-28T02:47:11;18.80;65.30
71672;DHT22;62112;45.638;11.714;2023-01-28T02:49:58;18.90;65.30
71672;DHT22;62112;45.638;11.714;2023-01-28T02:52:45;18.80;65.30
71672;DHT22;62112;45.638;11.714;2023-01-28T02:55:54;18.80;65.30
71672;DHT22;62112;45.638;11.714;2023-01-28T03:01:23;18.90;65.30
71672;DHT22;62112;45.638;11.714;2023-01-28T03:04:08;18.80;65.60
71672;DHT22;62112;45.638;11.714;2023-01-28T03:06:39;18.90;65.10
71672;DHT22;62112;45.638;11.714;2023-01-28T03:09:08;18.80;65.10
71672;DHT22;62112;45.638;11.714;2023-01-28T03:12:10;18.80;65.20
71672;DHT22;62112;45.638;11.714;2023-01-28T03:15:02;18.80;65.20
71672;DHT22;62112;45.638;11.714;2023-01-28T03:27:06;18.80;65.30
71672;DHT22;62112;45.638;11.714;2023-01-28T03:29:56;18.80;65.20
71672;DHT22;62112;45.638;11.714;2023-01-28T03:32:42;18.80;65.20
71672;DHT22;62112;45.638;11.714;2023-01-28T03:35:29;18.70;65.60
71672;DHT22;62112;45.638;11.714;2023-01-28T03:38:15;18.80;65.30
71672;DHT22;62112;45.638;11.714;2023-01-28T03:40:59;18.70;65.10
71672;DHT22;62112;45.638;11.714;2023-01-28T03:43:25;18.70;65.10
71672;DHT22;62112;45.638;11.714;2023-01-28T03:45:51;18.80;64.80
71672;DHT22;62112;45.638;11.714;2023-01-28T03:48:18;18.70;65.60
71672;DHT22;62112;45.638;11.714;2023-01-28T03:50:45;18.70;65.00
71672;DHT22;62112;45.638;11.714;2023-01-28T03:53:11;18.70;65.20
71672;DHT22;62112;45.638;11.714;2023-01-28T03:55:37;18.80;65.30
71672;DHT22;62112;45.638;11.714;2023-01-28T03:58:03;18.80;65.50
71672;DHT22;62112;45.638;11.714;2023-01-28T04:00:30;18.70;64.80
71672;DHT22;62112;45.638;11.714;2023-01-28T04:02:57;18.70;65.10
71672;DHT22;62112;45.638;11.714;2023-01-28T04:05:24;18.80;65.10
71672;DHT22;62112;45.638;11.714;2023-01-28T04:07:54;18.70;65.20
71672;DHT22;62112;45.638;11.714;2023-01-28T04:10:20;18.70;64.90
71672;DHT22;62112;45.638;11.714;2023-01-28T04:12:46;18.60;65.40
71672;DHT22;62112;45.638;11.714;2023-01-28T04:15:15;18.70;65.60
71672;DHT22;62112;45.638;11.714;2023-01-28T04:17:45;18.60;64.90
71672;DHT22;62112;45.638;11.714;2023-01-28T04:20:11;18.70;65.20
71672;DHT22;62112;45.638;11.714;2023-01-28T04:22:37;18.70;65.00
71672;DHT22;62112;45.638;11.714;2023-01-28T04:25:04;18.70;65.00
71672;DHT22;62112;45.638;11.714;2023-01-28T04:27:29;18.60;64.90
71672;DHT22;62112;45.638;11.714;2023-01-28T04:29:55;18.60;65.10
71672;DHT22;62112;45.638;11.714;2023-01-28T04:32:21;18.70;64.80
71672;DHT22;62112;45.638;11.714;2023-01-28T04:34:47;18.70;65.00
71672;DHT22;62112;45.638;11.714;2023-01-28T04:37:13;18.60;65.00
71672;DHT22;62112;45.638;11.714;2023-01-28T04:39:38;18.60;65.30
71672;DHT22;62112;45.638;11.714;2023-01-28T04:42:04;18.60;65.00
71672;DHT22;62112;45.638;11.714;2023-01-28T04:44:30;18.60;65.00
71672;DHT22;62112;45.638;11.714;2023-01-28T04:46:56;18.60;65.30
71672;DHT22;62112;45.638;11.714;2023-01-28T04:49:22;18.60;65.00
71672;DHT22;62112;45.638;11.714;2023-01-28T04:51:48;18.60;65.20
71672;DHT22;62112;45.638;11.714;2023-01-28T04:54:13;18.60;65.00
71672;DHT22;62112;45.638;11.714;2023-01-28T04:56:39;18.60;64.90
71672;DHT22;62112;45.638;11.714;2023-01-28T04:59:05;18.60;65.20
71672;DHT22;62112;45.638;11.714;2023-01-28T05:01:31;18.50;65.00
71672;DHT22;62112;45.638;11.714;2023-01-28T05:03:57;18.50;64.80
71672;DHT22;62112;45.638;11.714;2023-01-28T05:06:22;18.60;64.70
71672;DHT22;62112;45.638;11.714;2023-01-28T05:08:48;18.60;64.90
71672;DHT22;62112;45.638;11.714;2023-01-28T05:11:14;18.50;65.10
71672;DHT22;62112;45.638;11.714;2023-01-28T05:13:40;18.60;65.00
71672;DHT22;62112;45.638;11.714;2023-01-28T05:16:06;18.60;65.00
71672;DHT22;62112;45.638;11.714;2023-01-28T05:18:32;18.60;64.80
71672;DHT22;62112;45.638;11.714;2023-01-28T05:20:58;18.60;65.20
71672;DHT22;62112;45.638;11.714;2023-01-28T05:23:23;18.60;65.10
71672;DHT22;62112;45.638;11.714;2023-01-28T05:25:49;18.50;64.80
71672;DHT22;62112;45.638;11.714;2023-01-28T05:28:15;18.50;64.80
71672;DHT22;62112;45.638;11.714;2023-01-28T05:30:41;18.60;64.80
71672;DHT22;62112;45.638;11.714;2023-01-28T05:33:07;18.50;65.00
71672;DHT22;62112;45.638;11.714;2023-01-28T05:35:33;18.50;65.00
71672;DHT22;62112;45.638;11.714;2023-01-28T05:38:01;18.50;64.80
71672;DHT22;62112;45.638;11.714;2023-01-28T05:40:27;18.50;64.90
71672;DHT22;62112;45.638;11.714;2023-01-28T05:42:53;18.50;65.00
71672;DHT22;62112;45.638;11.714;2023-01-28T05:45:20;18.50;64.80
71672;DHT22;62112;45.638;11.714;2023-01-28T05:47:46;18.50;64.80
71672;DHT22;62112;45.638;11.714;2023-01-28T05:50:13;18.50;64.90
71672;DHT22;62112;45.638;11.714;2023-01-28T05:52:39;18.40;65.20
71672;DHT22;62112;45.638;11.714;2023-01-28T05:55:05;18.50;64.80
71672;DHT22;62112;45.638;11.714;2023-01-28T05:57:32;18.50;65.00
71672;DHT22;62112;45.638;11.714;2023-01-28T05:59:58;18.50;64.30
71672;DHT22;62112;45.638;11.714;2023-01-28T06:02:23;18.50;64.50
71672;DHT22;62112;45.638;11.714;2023-01-28T06:04:49;18.50;64.70
71672;DHT22;62112;45.638;11.714;2023-01-28T06:07:15;18.50;64.70
71672;DHT22;62112;45.638;11.714;2023-01-28T06:09:45;18.40;64.80
71672;DHT22;62112;45.638;11.714;2023-01-28T06:12:12;18.40;64.90
71672;DHT22;62112;45.638;11.714;2023-01-28T06:14:38;18.40;65.10
71672;DHT22;62112;45.638;11.714;2023-01-28T06:17:04;18.50;64.50
71672;DHT22;62112;45.638;11.714;2023-01-28T06:19:30;18.40;64.70
71672;DHT22;62112;45.638;11.714;2023-01-28T06:21:55;18.40;64.80
71672;DHT22;62112;45.638;11.714;2023-01-28T06:24:21;18.40;64.90
71672;DHT22;62112;45.638;11.714;2023-01-28T06:26:47;18.40;65.10
71672;DHT22;62112;45.638;11.714;2023-01-28T06:29:13;18.40;65.00
71672;DHT22;62112;45.638;11.714;2023-01-28T06:31:39;18.40;64.60
71672;DHT22;62112;45.638;11.714;2023-01-28T06:34:05;18.40;64.80
71672;DHT22;62112;45.638;11.714;2023-01-28T06:36:31;18.40;64.60
71672;DHT22;62112;45.638;11.714;2023-01-28T06:38:57;18.40;65.10
71672;DHT22;62112;45.638;11.714;2023-01-28T06:41:23;18.40;64.90
71672;DHT22;62112;45.638;11.714;2023-01-28T06:43:49;18.40;64.90
71672;DHT22;62112;45.638;11.714;2023-01-28T06:46:15;18.40;65.00
71672;DHT22;62112;45.638;11.714;2023-01-28T06:48:41;18.40;65.10
71672;DHT22;62112;45.638;11.714;2023-01-28T06:51:06;18.30;64.60
71672;DHT22;62112;45.638;11.714;2023-01-28T06:53:32;18.40;64.40
71672;DHT22;62112;45.638;11.714;2023-01-28T06:55:58;18.40;64.90
71672;DHT22;62112;45.638;11.714;2023-01-28T06:58:24;18.30;65.20
71672;DHT22;62112;45.638;11.714;2023-01-28T07:00:50;18.40;64.70
71672;DHT22;62112;45.638;11.714;2023-01-28T07:03:17;18.40;64.80
71672;DHT22;62112;45.638;11.714;2023-01-28T07:05:43;18.30;64.80
71672;DHT22;62112;45.638;11.714;2023-01-28T07:08:09;18.40;64.50
71672;DHT22;62112;45.638;11.714;2023-01-28T07:10:35;18.40;64.70
71672;DHT22;62112;45.638;11.714;2023-01-28T07:13:00;18.30;64.80
71672;DHT22;62112;45.638;11.714;2023-01-28T07:15:26;18.40;64.70
71672;DHT22;62112;45.638;11.714;2023-01-28T07:17:52;18.40;64.40
71672;DHT22;62112;45.638;11.714;2023-01-28T07:20:18;18.40;64.90
71672;DHT22;62112;45.638;11.714;2023-01-28T07:22:44;18.40;64.80
71672;DHT22;62112;45.638;11.714;2023-01-28T07:25:12;18.50;64.80
71672;DHT22;62112;45.638;11.714;2023-01-28T07:27:38;18.40;65.00
71672;DHT22;62112;45.638;11.714;2023-01-28T07:30:04;18.50;64.80
71672;DHT22;62112;45.638;11.714;2023-01-28T07:32:30;18.50;65.10
71672;DHT22;62112;45.638;11.714;2023-01-28T07:34:56;18.50;65.00
71672;DHT22;62112;45.638;11.714;2023-01-28T07:37:23;18.40;64.80
71672;DHT22;62112;45.638;11.714;2023-01-28T07:39:49;18.60;65.10
71672;DHT22;62112;45.638;11.714;2023-01-28T07:42:16;18.60;65.00
71672;DHT22;62112;45.638;11.714;2023-01-28T07:44:43;18.60;64.70
71672;DHT22;62112;45.638;11.714;2023-01-28T07:47:09;18.70;64.90
71672;DHT22;62112;45.638;11.714;2023-01-28T07:49:36;18.80;64.80
71672;DHT22;62112;45.638;11.714;2023-01-28T07:52:04;18.80;64.20
71672;DHT22;62112;45.638;11.714;2023-01-28T07:54:30;18.90;64.10
71672;DHT22;62112;45.638;11.714;2023-01-28T07:56:56;19.00;64.10
71672;DHT22;62112;45.638;11.714;2023-01-28T07:59:22;19.00;63.80
71672;DHT22;62112;45.638;11.714;2023-01-28T08:01:48;19.20;63.50
71672;DHT22;62112;45.638;11.714;2023-01-28T08:04:13;19.20;63.20
71672;DHT22;62112;45.638;11.714;2023-01-28T08:06:39;19.30;62.90
71672;DHT22;62112;45.638;11.714;2023-01-28T08:09:06;19.40;62.80
71672;DHT22;62112;45.638;11.714;2023-01-28T08:11:37;19.50;62.20
71672;DHT22;62112;45.638;11.714;2023-01-28T08:14:04;19.70;61.40
71672;DHT22;62112;45.638;11.714;2023-01-28T08:16:30;19.80;62.20
71672;DHT22;62112;45.638;11.714;2023-01-28T08:18:56;19.80;60.90
71672;DHT22;62112;45.638;11.714;2023-01-28T08:21:22;19.90;61.20
71672;DHT22;62112;45.638;11.714;2023-01-28T08:23:48;20.00;60.80
71672;DHT22;62112;45.638;11.714;2023-01-28T08:26:14;20.00;60.50
71672;DHT22;62112;45.638;11.714;2023-01-28T08:28:40;20.20;60.30
71672;DHT22;62112;45.638;11.714;2023-01-28T08:31:06;20.20;60.20
71672;DHT22;62112;45.638;11.714;2023-01-28T08:33:32;20.30;60.40
71672;DHT22;62112;45.638;11.714;2023-01-28T08:36:02;20.30;59.90
71672;DHT22;62112;45.638;11.714;2023-01-28T08:38:28;20.50;59.50
71672;DHT22;62112;45.638;11.714;2023-01-28T08:40:55;20.50;59.30
71672;DHT22;62112;45.638;11.714;2023-01-28T08:43:22;20.50;60.00
71672;DHT22;62112;45.638;11.714;2023-01-28T08:45:48;20.60;59.30
71672;DHT22;62112;45.638;11.714;2023-01-28T08:48:17;20.70;59.30
71672;DHT22;62112;45.638;11.714;2023-01-28T08:50:44;20.80;59.00
71672;DHT22;62112;45.638;11.714;2023-01-28T08:53:17;20.90;57.60
71672;DHT22;62112;45.638;11.714;2023-01-28T08:55:43;20.90;56.90
71672;DHT22;62112;45.638;11.714;2023-01-28T08:58:12;21.00;57.70
71672;DHT22;62112;45.638;11.714;2023-01-28T09:00:39;21.10;57.00
71672;DHT22;62112;45.638;11.714;2023-01-28T09:03:06;21.10;56.90
71672;DHT22;62112;45.638;11.714;2023-01-28T09:05:33;21.20;57.00
71672;DHT22;62112;45.638;11.714;2023-01-28T09:08:01;21.30;56.70
71672;DHT22;62112;45.638;11.714;2023-01-28T09:10:27;21.30;56.80
71672;DHT22;62112;45.638;11.714;2023-01-28T09:12:53;21.40;56.90
71672;DHT22;62112;45.638;11.714;2023-01-28T09:15:19;21.40;56.70
71672;DHT22;62112;45.638;11.714;2023-01-28T09:17:45;21.40;56.60
71672;DHT22;62112;45.638;11.714;2023-01-28T09:20:11;21.50;56.10
71672;DHT22;62112;45.638;11.714;2023-01-28T09:22:37;21.40;56.10
71672;DHT22;62112;45.638;11.714;2023-01-28T09:25:03;21.50;56.00
71672;DHT22;62112;45.638;11.714;2023-01-28T09:27:29;21.50;56.10
71672;DHT22;62112;45.638;11.714;2023-01-28T09:29:55;21.50;55.90
71672;DHT22;62112;45.638;11.714;2023-01-28T09:32:21;21.60;55.90
71672;DHT22;62112;45.638;11.714;2023-01-28T09:34:49;21.60;55.70
71672;DHT22;62112;45.638;11.714;2023-01-28T09:37:15;21.50;55.90
71672;DHT22;62112;45.638;11.714;2023-01-28T09:39:42;21.60;55.70
71672;DHT22;62112;45.638;11.714;2023-01-28T09:42:23;21.60;55.40
71672;DHT22;62112;45.638;11.714;2023-01-28T09:47:51;21.70;54.90
71672;DHT22;62112;45.638;11.714;2023-01-28T09:50:32;21.70;55.40
71672;DHT22;62112;45.638;11.714;2023-01-28T09:53:05;21.80;55.30
71672;DHT22;62112;45.638;11.714;2023-01-28T09:55:35;21.80;55.10
71672;DHT22;62112;45.638;11.714;2023-01-28T09:58:06;21.80;55.10
71672;DHT22;62112;45.638;11.714;2023-01-28T10:00:45;21.80;55.40
71672;DHT22;62112;45.638;11.714;2023-01-28T10:14:41;21.50;54.30
71672;DHT22;62112;45.638;11.714;2023-01-28T10:17:18;21.40;54.50
71672;DHT22;62112;45.638;11.714;2023-01-28T10:19:57;21.50;54.30
71672;DHT22;62112;45.638;11.714;2023-01-28T10:22:57;21.40;54.20
71672;DHT22;62112;45.638;11.714;2023-01-28T10:25:29;21.30;54.20
71672;DHT22;62112;45.638;11.714;2023-01-28T10:27:55;21.40;54.20
71672;DHT22;62112;45.638;11.714;2023-01-28T10:30:26;21.30;54.50
71672;DHT22;62112;45.638;11.714;2023-01-28T10:33:00;21.20;54.60
71672;DHT22;62112;45.638;11.714;2023-01-28T10:35:32;21.30;54.40
71672;DHT22;62112;45.638;11.714;2023-01-28T10:38:02;21.20;54.70
71672;DHT22;62112;45.638;11.714;2023-01-28T10:40:31;21.20;54.80
71672;DHT22;62112;45.638;11.714;2023-01-28T10:42:56;21.20;54.80
71672;DHT22;62112;45.638;11.714;2023-01-28T10:45:26;21.10;54.70
71672;DHT22;62112;45.638;11.714;2023-01-28T10:48:06;21.10;55.00
71672;DHT22;62112;45.638;11.714;2023-01-28T10:50:32;21.10;54.50
71672;DHT22;62112;45.638;11.714;2023-01-28T10:53:02;21.00;55.10
71672;DHT22;62112;45.638;11.714;2023-01-28T10:55:53;21.00;54.80
71672;DHT22;62112;45.638;11.714;2023-01-28T10:58:23;21.10;55.00
71672;DHT22;62112;45.638;11.714;2023-01-28T11:00:54;21.10;55.20
71672;DHT22;62112;45.638;11.714;2023-01-28T11:03:22;21.20;55.00
71672;DHT22;62112;45.638;11.714;2023-01-28T11:05:55;21.20;54.90
71672;DHT22;62112;45.638;11.714;2023-01-28T11:08:24;21.30;55.00
71672;DHT22;62112;45.638;11.714;2023-01-28T11:10:51;21.30;54.60
71672;DHT22;62112;45.638;11.714;2023-01-28T11:13:20;21.30;54.50
71672;DHT22;62112;45.638;11.714;2023-01-28T11:15:53;21.30;55.10
71672;DHT22;62112;45.638;11.714;2023-01-28T11:18:25;21.20;54.40
71672;DHT22;62112;45.638;11.714;2023-01-28T11:20:59;21.20;54.80
71672;DHT22;62112;45.638;11.714;2023-01-28T11:23:37;21.30;54.70
71672;DHT22;62112;45.638;11.714;2023-01-28T11:26:12;21.30;54.60
71672;DHT22;62112;45.638;11.714;2023-01-28T11:28:40;21.30;54.40
71672;DHT22;62112;45.638;11.714;2023-01-28T11:31:09;21.30;54.40
71672;DHT22;62112;45.638;11.714;2023-01-28T11:33:42;21.40;54.10
71672;DHT22;62112;45.638;11.714;2023-01-28T11:36:21;21.30;54.50
71672;DHT22;62112;45.638;11.714;2023-01-28T11:39:01;21.20;54.50
71672;DHT22;62112;45.638;11.714;2023-01-28T11:41:33;21.10;54.40
71672;DHT22;62112;45.638;11.714;2023-01-28T11:47:23;21.10;54.40
71672;DHT22;62112;45.638;11.714;2023-01-28T11:55:36;20.90;55.90
71672;DHT22;62112;45.638;11.714;2023-01-28T11:58:22;20.80;55.90
71672;DHT22;62112;45.638;11.714;2023-01-28T12:01:05;20.80;55.90
71672;DHT22;62112;45.638;11.714;2023-01-28T12:06:45;20.60;56.20
71672;DHT22;62112;45.638;11.714;2023-01-28T12:18:02;20.50;56.70
71672;DHT22;62112;45.638;11.714;2023-01-28T12:26:46;20.60;56.00
71672;DHT22;62112;45.638;11.714;2023-01-28T12:32:28;20.50;56.20
71672;DHT22;62112;45.638;11.714;2023-01-28T12:40:58;20.50;55.70
71672;DHT22;62112;45.638;11.714;2023-01-28T12:43:48;20.50;55.60
71672;DHT22;62112;45.638;11.714;2023-01-28T12:46:38;20.50;55.60
71672;DHT22;62112;45.638;11.714;2023-01-28T12:49:26;20.50;56.00
71672;DHT22;62112;45.638;11.714;2023-01-28T12:52:10;20.40;55.80
71672;DHT22;62112;45.638;11.714;2023-01-28T12:57:31;20.40;55.40
71672;DHT22;62112;45.638;11.714;2023-01-28T13:03:17;20.40;55.60
71672;DHT22;62112;45.638;11.714;2023-01-28T13:05:54;20.30;55.90
71672;DHT22;62112;45.638;11.714;2023-01-28T13:08:27;20.30;55.90
71672;DHT22;62112;45.638;11.714;2023-01-28T13:10:58;20.30;56.10
71672;DHT22;62112;45.638;11.714;2023-01-28T13:13:39;20.30;56.10
71672;DHT22;62112;45.638;11.714;2023-01-28T13:16:11;20.30;55.80
71672;DHT22;62112;45.638;11.714;2023-01-28T13:23:50;20.10;55.50
71672;DHT22;62112;45.638;11.714;2023-01-28T13:28:49;20.20;55.80
71672;DHT22;62112;45.638;11.714;2023-01-28T13:31:18;20.10;56.00
71672;DHT22;62112;45.638;11.714;2023-01-28T13:36:30;20.20;56.00
71672;DHT22;62112;45.638;11.714;2023-01-28T13:39:05;20.20;56.10
71672;DHT22;62112;45.638;11.714;2023-01-28T13:41:53;20.10;56.00
71672;DHT22;62112;45.638;11.714;2023-01-28T13:44:33;20.10;56.00
71672;DHT22;62112;45.638;11.714;2023-01-28T13:47:20;20.10;56.20
71672;DHT22;62112;45.638;11.714;2023-01-28T13:49:50;19.90;56.10
71672;DHT22;62112;45.638;11.714;2023-01-28T13:52:27;20.00;56.20
71672;DHT22;62112;45.638;11.714;2023-01-28T13:55:17;20.00;56.20
71672;DHT22;62112;45.638;11.714;2023-01-28T14:00:53;19.90;56.10
71672;DHT22;62112;45.638;11.714;2023-01-28T14:18:34;19.80;55.40
71672;DHT22;62112;45.638;11.714;2023-01-28T14:21:03;19.80;55.30
71672;DHT22;62112;45.638;11.714;2023-01-28T14:23:34;19.80;55.40
71672;DHT22;62112;45.638;11.714;2023-01-28T14:31:27;19.70;55.40
71672;DHT22;62112;45.638;11.714;2023-01-28T14:36:41;19.70;55.30
71672;DHT22;62112;45.638;11.714;2023-01-28T14:39:20;19.60;55.60
71672;DHT22;62112;45.638;11.714;2023-01-28T14:41:48;19.60;55.80
71672;DHT22;62112;45.638;11.714;2023-01-28T14:44:37;19.60;56.00
71672;DHT22;62112;45.638;11.714;2023-01-28T14:52:35;19.60;56.30
71672;DHT22;62112;45.638;11.714;2023-01-28T14:57:51;19.60;56.00
71672;DHT22;62112;45.638;11.714;2023-01-28T15:00:29;19.60;56.60
71672;DHT22;62112;45.638;11.714;2023-01-28T15:02:55;19.60;56.20
71672;DHT22;62112;45.638;11.714;2023-01-28T15:05:24;19.50;56.50
71672;DHT22;62112;45.638;11.714;2023-01-28T15:07:51;19.50;56.50
71672;DHT22;62112;45.638;11.714;2023-01-28T15:10:30;19.50;56.60
71672;DHT22;62112;45.638;11.714;2023-01-28T15:12:58;19.50;56.80
71672;DHT22;62112;45.638;11.714;2023-01-28T15:15:39;19.50;56.70
71672;DHT22;62112;45.638;11.714;2023-01-28T15:18:21;19.40;56.80
71672;DHT22;62112;45.638;11.714;2023-01-28T15:20:51;19.50;56.70
71672;DHT22;62112;45.638;11.714;2023-01-28T15:23:23;19.50;56.90
71672;DHT22;62112;45.638;11.714;2023-01-28T15:25:49;19.50;57.10
71672;DHT22;62112;45.638;11.714;2023-01-28T15:28:27;19.40;56.90
71672;DHT22;62112;45.638;11.714;2023-01-28T15:30:54;19.40;57.00
71672;DHT22;62112;45.638;11.714;2023-01-28T15:33:21;19.30;57.00
71672;DHT22;62112;45.638;11.714;2023-01-28T15:35:52;19.40;57.10
71672;DHT22;62112;45.638;11.714;2023-01-28T15:38:18;19.30;57.70
71672;DHT22;62112;45.638;11.714;2023-01-28T15:41:04;19.40;57.50
71672;DHT22;62112;45.638;11.714;2023-01-28T15:43:32;19.40;57.50
71672;DHT22;62112;45.638;11.714;2023-01-28T15:46:00;19.30;57.70
71672;DHT22;62112;45.638;11.714;2023-01-28T15:48:29;19.30;57.60
71672;DHT22;62112;45.638;11.714;2023-01-28T15:51:05;19.30;57.70
71672;DHT22;62112;45.638;11.714;2023-01-28T15:53:44;19.30;58.20
71672;DHT22;62112;45.638;11.714;2023-01-28T15:56:12;19.30;58.10
71672;DHT22;62112;45.638;11.714;2023-01-28T15:58:39;19.40;58.00
71672;DHT22;62112;45.638;11.714;2023-01-28T16:03:35;19.30;58.20
71672;DHT22;62112;45.638;11.714;2023-01-28T16:11:00;19.20;58.30
71672;DHT22;62112;45.638;11.714;2023-01-28T16:13:29;19.20;58.60
71672;DHT22;62112;45.638;11.714;2023-01-28T16:15:56;19.30;58.50
71672;DHT22;62112;45.638;11.714;2023-01-28T16:18:40;19.20;58.90
71672;DHT22;62112;45.638;11.714;2023-01-28T16:21:10;19.20;59.40
71672;DHT22;62112;45.638;11.714;2023-01-28T16:23:39;19.20;59.20
71672;DHT22;62112;45.638;11.714;2023-01-28T16:26:25;19.20;59.70
71672;DHT22;62112;45.638;11.714;2023-01-28T16:28:52;19.20;60.40
71672;DHT22;62112;45.638;11.714;2023-01-28T16:31:19;19.20;60.10
71672;DHT22;62112;45.638;11.714;2023-01-28T16:33:44;19.20;60.60
71672;DHT22;62112;45.638;11.714;2023-01-28T16:36:13;19.20;60.40
71672;DHT22;62112;45.638;11.714;2023-01-28T16:38:39;19.30;61.20
71672;DHT22;62112;45.638;11.714;2023-01-28T16:41:11;19.30;61.00
71672;DHT22;62112;45.638;11.714;2023-01-28T16:43:38;19.30;61.70
71672;DHT22;62112;45.638;11.714;2023-01-28T16:46:04;19.20;61.80
71672;DHT22;62112;45.638;11.714;2023-01-28T16:48:29;19.10;61.20
71672;DHT22;62112;45.638;11.714;2023-01-28T16:50:55;19.10;61.20
71672;DHT22;62112;45.638;11.714;2023-01-28T16:53:31;19.20;61.20
71672;DHT22;62112;45.638;11.714;2023-01-28T16:55:58;19.20;61.50
71672;DHT22;62112;45.638;11.714;2023-01-28T16:58:25;19.20;61.30
71672;DHT22;62112;45.638;11.714;2023-01-28T17:00:52;19.10;61.10
71672;DHT22;62112;45.638;11.714;2023-01-28T17:03:18;19.10;61.50
71672;DHT22;62112;45.638;11.714;2023-01-28T17:05:45;19.10;62.10
71672;DHT22;62112;45.638;11.714;2023-01-28T17:08:11;19.00;61.40
71672;DHT22;62112;45.638;11.714;2023-01-28T17:10:36;19.00;61.50
71672;DHT22;62112;45.638;11.714;2023-01-28T17:13:02;19.10;62.10
71672;DHT22;62112;45.638;11.714;2023-01-28T17:15:28;19.00;61.60
71672;DHT22;62112;45.638;11.714;2023-01-28T17:17:54;19.00;61.80
71672;DHT22;62112;45.638;11.714;2023-01-28T17:20:20;19.00;62.20
71672;DHT22;62112;45.638;11.714;2023-01-28T17:22:46;19.00;62.80
71672;DHT22;62112;45.638;11.714;2023-01-28T17:25:12;19.00;63.40
71672;DHT22;62112;45.638;11.714;2023-01-28T17:27:39;19.00;63.10
71672;DHT22;62112;45.638;11.714;2023-01-28T17:30:05;19.00;62.90
71672;DHT22;62112;45.638;11.714;2023-01-28T17:32:31;19.00;61.20
71672;DHT22;62112;45.638;11.714;2023-01-28T17:34:57;19.00;60.60
71672;DHT22;62112;45.638;11.714;2023-01-28T17:37:23;19.00;59.80
71672;DHT22;62112;45.638;11.714;2023-01-28T17:39:49;19.00;59.80
71672;DHT22;62112;45.638;11.714;2023-01-28T17:42:15;19.10;60.10
71672;DHT22;62112;45.638;11.714;2023-01-28T17:44:42;19.10;59.80